New York, NY

3:22 AM EDT on September 05, 2015 (GMT -0400)
Murray Hill | | Change Station
CLOSE
Current Station
Personal Weather Station
Location: New York, NY
Elevation: 98 ft
Nearby Weather Stations

Elev 98 ft 40.75 °N, 73.98 °W | Updated 19 seconds ago

Mostly Cloudy
Mostly Cloudy
67.6 °F
Feels Like 67.6 °F
N
4.0
Wind Variable Wind from NE
Gusts 16.0 mph

Today
High -- | Low -- °F
--% Chance of Precip.
Yesterday
High -- | Low -- °F
Precip. -- in
6:26 AM 7:22 PM
Waning Gibbous, 51% visible
Pressure 30.25 in
Visibility 10.0 miles
Clouds Scattered Clouds 1800 ft
Mostly Cloudy 6000 ft
Dew Point 62 °F
Humidity 83%
Rainfall 0.00 in
Snow Depth Not available.
UV 0 out of 12
Pollen 9.00 out of 12
Air Quality Not available.
Flu Activity Not available.
SPECI KNYC 050703Z AUTO 09009KT 10SM SCT018 BKN060 22/16 A3025 RMK AO2 T02170156 $
Pressure 30.25 in
Visibility 10.0 miles
Clouds Scattered Clouds 1800 ft
Mostly Cloudy 6000 ft
Dew Point 62 °F
Humidity 83%
Rainfall 0.00 in
Snow Depth Not available.
UV 0 out of 12
Pollen 9.00 out of 12
Air Quality Not available.
Flu Activity Not available.
SPECI KNYC 050703Z AUTO 09009KT 10SM SCT018 BKN060 22/16 A3025 RMK AO2 T02170156 $

10-Day Weather Forecast

×

Almanac

Astronomy

Sep. 05, 2015 Rise Set
Actual Time
Civil Twilight
Nautical Twilight
Astronomical Twilight
Moon
Length of Visible Light
Length of Day
Tomorrow will be .
, % of the Moon is Illuminated

Today's Extremes

State Highs State Lows

Community

WunderPhotos

Upload Photos

1,852,430 photos uploaded!

WunderBlogs® & News

Nearby

Air Quality

  Air Quality AQ Index Pollutant
Not available.

Snow Depth

Station Depth Elevation

Earthquake Activity

City Distance Mag. Time & Date
Minimum magnitude displayed is 2.5.

Coastal Water Temperatures

Place Temperature

Stations

Nearby Weather Stations

Station Location Temp. Windchill Dew Point Humidity Wind Precip. Elev Updated Type